Portada
METAR-TAF:

METAR-TAF

Aeroports :

Katima Mulilo, Namíbia

latitud: 17-38-04S, longitud: 024-10-36E, altitud: 985 m

Observació

L'informe es va fer fa 1 hora i 12 minuts, a les 02:00 UTC
Vent 4 kt del Est
Temperatura 14°C
Humitat 31%
Pressió 1019 hPa

METAR: FYKM 200200Z AUTO 10004KT //// // ////// 14/M03 Q1019

Hora: 05:12 (03:12 UTC)

Pronòstic

L'informe es va fer fa 1 hora i 12 minuts, a les 02:00 UTC
Pronòstic vàlid del 20 a les 03 UTC al 20 a les 12 UTC
Vent 5 kt del Est
Visibilitat 10 km o més
sense núvols per sota de 1500 mi sense presència de cumulonimbus.

TAF: FYKM 200200Z 2003/2012 09005KT CAVOK

Observacions i pronòstics meteorològics de més de 4000 aeroports (METAR i TAF).

Les estacions disponibles són els punts grocs i vermells al mapa.

Posi el ratolí al punt desitjat per veure el nom de l'estació.

Feu clic per veure les observacions i els pronòstics meteorològics.

Per canviar el mapa: feu clic els botons verds amb una creu de color negre per apropar; al botó verd amb un guió per allunyar la imatge; o en les fletxes verdes per a mapes adjacents.


METAR-TAF: